createdAt,value
2017-12-03T00:01:39.730Z,61.42
2017-12-03T00:04:07.289Z,61.34
2017-12-03T00:06:34.809Z,60.58
2017-12-03T00:09:02.362Z,60.93
2017-12-03T00:11:29.900Z,61.04
2017-12-03T00:13:57.541Z,60.89
2017-12-03T00:16:25.499Z,60.73
2017-12-03T00:18:53.158Z,60.63
2017-12-03T00:21:20.777Z,61.04
2017-12-03T00:23:48.540Z,60.94
2017-12-03T00:26:16.050Z,61.12
2017-12-03T00:28:43.578Z,60.72
2017-12-03T00:31:11.161Z,60.49
2017-12-03T00:33:38.720Z,61.30
2017-12-03T00:36:06.255Z,61.68
2017-12-03T00:38:34.042Z,61.34
2017-12-03T00:41:01.626Z,60.94
2017-12-03T00:43:29.357Z,61.51
2017-12-03T00:45:57.141Z,61.56
2017-12-03T00:48:24.706Z,61.50
2017-12-03T00:50:52.349Z,61.26
2017-12-03T00:53:19.942Z,61.20
2017-12-03T00:55:47.569Z,61.15
2017-12-03T00:58:15.131Z,61.53
2017-12-03T01:00:42.705Z,61.84
2017-12-03T01:03:10.246Z,61.35
2017-12-03T01:05:37.758Z,62.00
2017-12-03T01:08:05.549Z,61.75
2017-12-03T01:10:33.171Z,61.66
2017-12-03T01:13:00.790Z,61.37
2017-12-03T01:15:28.554Z,61.54
2017-12-03T01:17:56.132Z,61.05
2017-12-03T01:20:23.658Z,61.36
2017-12-03T01:22:51.333Z,60.96
2017-12-03T01:25:18.846Z,61.23
2017-12-03T01:27:46.372Z,61.37
2017-12-03T01:30:14.113Z,60.82
2017-12-03T01:32:41.671Z,60.88
2017-12-03T01:35:09.186Z,60.53
2017-12-03T01:37:36.899Z,60.82
2017-12-03T01:40:04.452Z,61.25
2017-12-03T01:42:32.012Z,61.42
2017-12-03T01:44:59.698Z,61.79
2017-12-03T01:47:27.219Z,61.36
2017-12-03T01:49:54.726Z,61.10
2017-12-03T01:52:22.452Z,60.30
2017-12-03T01:54:50.014Z,59.57
2017-12-03T01:57:17.578Z,59.48
2017-12-03T01:59:45.127Z,60.37
2017-12-03T02:02:12.704Z,60.39
2017-12-03T02:04:40.248Z,60.37
2017-12-03T02:07:07.802Z,60.01
2017-12-03T02:09:35.322Z,59.99
2017-12-03T02:12:02.838Z,59.71
2017-12-03T02:14:30.418Z,59.68
2017-12-03T02:16:57.945Z,59.90
2017-12-03T02:19:25.507Z,59.67
2017-12-03T02:21:53.263Z,59.49
2017-12-03T02:24:20.790Z,59.19
2017-12-03T02:26:48.307Z,59.40
2017-12-03T02:29:15.882Z,60.01
2017-12-03T02:31:43.398Z,60.36
2017-12-03T02:34:10.906Z,60.59
2017-12-03T02:36:38.619Z,59.89
2017-12-03T02:39:06.134Z,59.85
2017-12-03T02:41:33.651Z,59.38
2017-12-03T02:44:01.503Z,59.50
2017-12-03T02:46:29.063Z,59.67
2017-12-03T02:48:56.620Z,59.23
2017-12-03T02:51:24.384Z,59.49
2017-12-03T02:53:51.943Z,59.69
2017-12-03T02:56:19.458Z,59.95
2017-12-03T02:58:47.061Z,59.66
2017-12-03T03:01:14.662Z,59.28
2017-12-03T03:03:42.178Z,59.25
2017-12-03T03:06:09.943Z,59.86
2017-12-03T03:08:37.502Z,59.60
2017-12-03T03:11:05.087Z,59.76
2017-12-03T03:13:32.726Z,59.36
2017-12-03T03:16:00.246Z,59.51
2017-12-03T03:18:27.759Z,60.17
2017-12-03T03:20:55.502Z,60.18
2017-12-03T03:23:23.062Z,60.13
2017-12-03T03:25:50.577Z,59.83
2017-12-03T03:28:18.134Z,59.54
2017-12-03T03:30:45.678Z,59.90
2017-12-03T03:33:13.204Z,60.36
2017-12-03T03:35:40.958Z,60.40
2017-12-03T03:38:08.470Z,60.63
2017-12-03T03:40:35.982Z,60.46
2017-12-03T03:43:03.840Z,60.44
2017-12-03T03:45:31.357Z,60.57
2017-12-03T03:47:58.883Z,60.73
2017-12-03T03:50:26.614Z,60.68
2017-12-03T03:52:54.130Z,60.98
2017-12-03T03:55:21.654Z,60.90
2017-12-03T03:57:49.198Z,61.04
2017-12-03T04:00:16.759Z,60.53
2017-12-03T04:02:44.316Z,60.77
2017-12-03T04:05:11.878Z,61.04
2017-12-03T04:07:39.432Z,60.56
2017-12-03T04:10:06.944Z,60.53
2017-12-03T04:12:34.494Z,60.34
2017-12-03T04:15:02.018Z,60.11
2017-12-03T04:17:29.588Z,60.36
2017-12-03T04:19:57.245Z,60.43
2017-12-03T04:22:24.792Z,60.27
2017-12-03T04:24:52.325Z,60.34
2017-12-03T04:27:19.893Z,60.12
2017-12-03T04:29:47.414Z,59.94
2017-12-03T04:32:14.926Z,59.79
2017-12-03T04:34:42.476Z,59.62
2017-12-03T04:37:09.994Z,59.80
2017-12-03T04:39:37.523Z,59.72
2017-12-03T04:42:05.167Z,59.37
2017-12-03T04:44:32.716Z,59.90
2017-12-03T04:47:00.275Z,59.88
2017-12-03T04:49:28.039Z,59.70
2017-12-03T04:51:55.605Z,59.81
2017-12-03T04:54:23.158Z,59.42
2017-12-03T04:56:51.006Z,59.23
2017-12-03T04:59:18.518Z,59.84
2017-12-03T05:01:46.039Z,59.89
2017-12-03T05:04:13.711Z,59.93
2017-12-03T05:06:41.261Z,59.95
2017-12-03T05:09:08.820Z,59.74
2017-12-03T05:11:36.510Z,59.63
2017-12-03T05:14:04.033Z,59.33
2017-12-03T05:16:31.546Z,59.32
2017-12-03T05:18:59.094Z,59.39
2017-12-03T05:21:26.615Z,59.39
2017-12-03T05:23:54.154Z,59.17
2017-12-03T05:26:21.733Z,59.17
2017-12-03T05:28:49.292Z,58.83
2017-12-03T05:31:16.870Z,59.09
2017-12-03T05:33:44.720Z,58.41
2017-12-03T05:36:12.286Z,58.62
2017-12-03T05:38:39.839Z,58.55
2017-12-03T05:41:07.702Z,58.55
2017-12-03T05:43:35.264Z,58.65
2017-12-03T05:46:02.838Z,58.83
2017-12-03T05:48:30.382Z,58.35
2017-12-03T05:50:57.894Z,58.35
2017-12-03T05:53:25.411Z,58.14
2017-12-03T05:55:53.134Z,58.78
2017-12-03T05:58:20.657Z,59.14
2017-12-03T06:00:48.174Z,59.21
2017-12-03T06:03:15.733Z,59.32
2017-12-03T06:05:43.294Z,58.96
2017-12-03T06:08:10.853Z,59.23
2017-12-03T06:10:38.821Z,59.45
2017-12-03T06:13:06.372Z,59.86
2017-12-03T06:15:33.877Z,59.20
2017-12-03T06:18:01.454Z,58.64
2017-12-03T06:20:28.977Z,58.43
2017-12-03T06:22:56.487Z,58.15
2017-12-03T06:25:24.066Z,57.73
2017-12-03T06:27:51.585Z,57.61
2017-12-03T06:30:19.102Z,58.17
2017-12-03T06:32:46.667Z,58.74
2017-12-03T06:35:14.210Z,58.93
2017-12-03T06:37:41.769Z,59.09
2017-12-03T06:40:09.505Z,59.01
2017-12-03T06:42:37.029Z,58.71
2017-12-03T06:45:04.553Z,58.22
2017-12-03T06:47:32.313Z,58.86
2017-12-03T06:49:59.868Z,59.04
2017-12-03T06:52:27.447Z,59.28
2017-12-03T06:54:55.397Z,59.17
2017-12-03T06:57:22.975Z,58.84
2017-12-03T06:59:50.513Z,58.58
2017-12-03T07:02:18.280Z,58.66
2017-12-03T07:04:45.839Z,58.73
2017-12-03T07:07:13.348Z,57.93
2017-12-03T07:09:40.899Z,57.86
2017-12-03T07:12:08.423Z,56.97
2017-12-03T07:14:35.975Z,56.23
2017-12-03T07:17:03.736Z,56.09
2017-12-03T07:19:31.295Z,57.17
2017-12-03T07:21:58.807Z,57.22
2017-12-03T07:24:26.597Z,56.91
2017-12-03T07:26:54.222Z,57.59
2017-12-03T07:29:22.248Z,57.60
2017-12-03T07:31:49.988Z,56.59
2017-12-03T07:34:17.565Z,55.96
2017-12-03T07:36:45.078Z,55.05
2017-12-03T07:39:12.792Z,55.44
2017-12-03T07:41:40.454Z,55.39
2017-12-03T07:44:07.963Z,56.07
2017-12-03T07:46:35.537Z,55.75
2017-12-03T07:49:03.870Z,54.32
2017-12-03T07:51:31.983Z,53.61
2017-12-03T07:53:59.654Z,52.70
2017-12-03T07:56:27.255Z,54.10
2017-12-03T07:58:54.801Z,52.61
2017-12-03T08:01:24.313Z,51.63
2017-12-03T08:03:52.376Z,51.21
2017-12-03T08:06:21.368Z,50.58
2017-12-03T08:08:49.885Z,50.22
2017-12-03T08:11:17.512Z,50.12
2017-12-03T08:13:45.935Z,49.98
2017-12-03T08:16:13.591Z,50.56
2017-12-03T08:18:41.657Z,49.62
2017-12-03T08:21:09.288Z,49.39
2017-12-03T08:23:38.493Z,49.44
2017-12-03T08:26:06.150Z,49.79
2017-12-03T08:28:33.908Z,51.20
2017-12-03T08:31:01.646Z,50.09
2017-12-03T08:33:30.122Z,50.35
2017-12-03T08:35:57.669Z,50.60
2017-12-03T08:38:26.399Z,49.21
2017-12-03T08:40:53.957Z,50.36
2017-12-03T08:43:22.269Z,49.98
2017-12-03T08:45:49.996Z,50.01
2017-12-03T08:48:19.058Z,49.70
2017-12-03T08:50:46.855Z,50.18
2017-12-03T08:53:14.586Z,50.04
2017-12-03T08:55:42.158Z,49.65
2017-12-03T08:58:09.646Z,50.37
2017-12-03T09:00:37.194Z,51.23
2017-12-03T09:03:04.734Z,50.30
2017-12-03T09:05:32.430Z,50.29
2017-12-03T09:08:00.998Z,49.83
2017-12-03T09:10:28.660Z,50.56
2017-12-03T09:12:56.202Z,49.15
2017-12-03T09:15:24.497Z,48.92
2017-12-03T09:17:52.264Z,48.20
2017-12-03T09:20:20.022Z,48.75
2017-12-03T09:22:48.684Z,48.09
2017-12-03T09:25:16.281Z,47.10
2017-12-03T09:27:45.259Z,47.02
2017-12-03T09:30:13.072Z,47.12
2017-12-03T09:32:40.786Z,47.25
2017-12-03T09:35:08.552Z,48.56
2017-12-03T09:37:37.666Z,47.92
2017-12-03T09:40:06.947Z,47.65
2017-12-03T09:42:34.710Z,46.62
2017-12-03T09:45:02.884Z,45.32
2017-12-03T09:47:30.454Z,45.49
2017-12-03T09:49:58.411Z,46.28
2017-12-03T09:52:26.488Z,47.38
2017-12-03T09:54:55.382Z,46.04
2017-12-03T09:57:23.445Z,47.32
2017-12-03T09:59:51.208Z,45.88
2017-12-03T10:02:18.855Z,46.39
2017-12-03T10:04:46.449Z,45.78
2017-12-03T10:07:14.868Z,44.57
2017-12-03T10:09:42.468Z,45.60
2017-12-03T10:12:10.239Z,44.85
2017-12-03T10:14:37.793Z,46.10
2017-12-03T10:17:06.017Z,45.68
2017-12-03T10:19:33.717Z,45.60
2017-12-03T10:22:02.390Z,46.82
2017-12-03T10:24:30.280Z,47.16
2017-12-03T10:26:58.058Z,49.20
2017-12-03T10:29:26.389Z,49.00
2017-12-03T10:31:54.206Z,49.63
2017-12-03T10:34:22.279Z,48.29
2017-12-03T10:36:50.434Z,48.19
2017-12-03T10:39:18.430Z,48.04
2017-12-03T10:41:46.998Z,48.16
2017-12-03T10:44:16.102Z,48.53
2017-12-03T10:46:43.954Z,48.19
2017-12-03T10:49:11.722Z,48.42
2017-12-03T10:51:39.400Z,48.16
2017-12-03T10:54:07.008Z,48.35
2017-12-03T10:56:34.796Z,47.36
2017-12-03T10:59:02.755Z,47.27
2017-12-03T11:01:30.528Z,48.19
2017-12-03T11:03:58.284Z,46.11
2017-12-03T11:06:25.953Z,46.87
2017-12-03T11:08:53.717Z,46.46
2017-12-03T11:11:21.265Z,46.90
2017-12-03T11:13:48.866Z,46.52
2017-12-03T11:16:16.598Z,46.47
2017-12-03T11:18:44.161Z,46.84
2017-12-03T11:21:12.311Z,47.34
2017-12-03T11:23:40.384Z,46.32
2017-12-03T11:26:07.915Z,46.53
2017-12-03T11:28:35.550Z,47.66
2017-12-03T11:31:03.076Z,46.71
2017-12-03T11:33:30.660Z,47.40
2017-12-03T11:35:58.222Z,47.64
2017-12-03T11:38:25.784Z,48.29
2017-12-03T11:40:53.372Z,48.91
2017-12-03T11:43:20.980Z,48.51
2017-12-03T11:45:48.653Z,47.46
2017-12-03T11:48:16.404Z,47.23
2017-12-03T11:50:44.067Z,47.60
2017-12-03T11:53:11.625Z,47.37
2017-12-03T11:55:39.187Z,48.36
2017-12-03T11:58:07.152Z,46.87
2017-12-03T12:00:34.694Z,48.08
2017-12-03T12:03:02.448Z,48.27
2017-12-03T12:05:30.261Z,48.25
2017-12-03T12:07:58.738Z,48.06
2017-12-03T12:10:26.279Z,49.75
2017-12-03T12:12:54.145Z,49.70
2017-12-03T12:15:21.910Z,48.61
2017-12-03T12:17:49.526Z,47.59
2017-12-03T12:20:17.438Z,47.33
2017-12-03T12:22:45.007Z,49.80
2017-12-03T12:25:12.570Z,49.63
2017-12-03T12:27:40.373Z,50.05
2017-12-03T12:30:07.954Z,49.58
2017-12-03T12:32:35.535Z,50.47
2017-12-03T12:35:03.406Z,49.79
2017-12-03T12:37:31.174Z,49.74
2017-12-03T12:39:59.040Z,49.65
2017-12-03T12:42:26.630Z,49.05
2017-12-03T12:44:54.155Z,50.00
2017-12-03T12:47:21.774Z,50.91
2017-12-03T12:49:49.488Z,51.96
2017-12-03T12:52:17.036Z,50.95
2017-12-03T12:54:44.699Z,52.26
2017-12-03T12:57:13.179Z,52.32
2017-12-03T12:59:40.728Z,53.18
2017-12-03T13:02:08.297Z,52.06
2017-12-03T13:04:36.419Z,51.44
2017-12-03T13:07:04.063Z,51.28
2017-12-03T13:09:31.590Z,51.71
2017-12-03T13:11:59.374Z,52.96
2017-12-03T13:14:27.117Z,52.65
2017-12-03T13:16:54.775Z,53.33
2017-12-03T13:19:22.414Z,52.59
2017-12-03T13:21:49.999Z,52.74
2017-12-03T13:24:17.667Z,54.45
2017-12-03T13:26:45.647Z,54.37
2017-12-03T13:29:13.393Z,54.56
2017-12-03T13:31:40.935Z,55.49
2017-12-03T13:34:08.922Z,55.28
2017-12-03T13:36:36.582Z,55.58
2017-12-03T13:39:04.450Z,55.74
2017-12-03T13:41:32.422Z,56.69
2017-12-03T13:43:59.934Z,57.07
2017-12-03T13:46:27.454Z,57.80
2017-12-03T13:48:55.203Z,58.36
2017-12-03T13:51:22.756Z,60.19
2017-12-03T13:53:50.319Z,59.79
2017-12-03T13:56:17.872Z,59.41
2017-12-03T13:58:45.456Z,59.88
2017-12-03T14:01:13.096Z,60.50
2017-12-03T14:03:40.979Z,61.78
2017-12-03T14:06:08.495Z,61.71
2017-12-03T14:08:36.099Z,61.99
2017-12-03T14:11:04.137Z,62.20
2017-12-03T14:13:31.941Z,62.68
2017-12-03T14:15:59.778Z,62.95
2017-12-03T14:18:27.354Z,63.49
2017-12-03T14:20:54.949Z,63.96
2017-12-03T14:23:22.469Z,63.75
2017-12-03T14:25:50.421Z,63.82
2017-12-03T14:28:18.090Z,62.94
2017-12-03T14:30:45.660Z,64.21
2017-12-03T14:33:13.515Z,64.11
2017-12-03T14:35:41.097Z,63.35
2017-12-03T14:38:08.787Z,63.52
2017-12-03T14:40:36.398Z,63.67
2017-12-03T14:43:03.927Z,64.00
2017-12-03T14:45:31.452Z,64.25
2017-12-03T14:47:59.026Z,63.68
2017-12-03T14:50:26.551Z,65.14
2017-12-03T14:52:54.138Z,65.07
2017-12-03T14:55:21.956Z,63.67
2017-12-03T14:57:49.949Z,64.87
2017-12-03T15:00:17.816Z,64.71
2017-12-03T15:02:45.863Z,65.53
2017-12-03T15:05:13.934Z,65.56
2017-12-03T15:07:42.619Z,65.51
2017-12-03T15:10:11.070Z,65.27
2017-12-03T15:12:39.541Z,65.56
2017-12-03T15:15:07.246Z,64.65
2017-12-03T15:17:35.211Z,64.70
2017-12-03T15:20:02.828Z,65.64
2017-12-03T15:22:30.636Z,65.19
2017-12-03T15:24:58.816Z,65.67
2017-12-03T15:27:27.188Z,66.70
2017-12-03T15:29:55.619Z,66.55
2017-12-03T15:32:23.335Z,66.18
2017-12-03T15:34:51.197Z,66.44
2017-12-03T15:37:19.168Z,66.96
2017-12-03T15:39:46.843Z,66.72
2017-12-03T15:42:14.860Z,66.05
2017-12-03T15:44:44.198Z,66.06
2017-12-03T15:47:11.962Z,65.74
2017-12-03T15:49:40.115Z,65.40
2017-12-03T15:52:07.814Z,65.59
2017-12-03T15:54:36.278Z,65.88
2017-12-03T15:57:03.938Z,65.19
2017-12-03T15:59:31.704Z,65.24
2017-12-03T16:01:59.980Z,65.41
2017-12-03T16:04:27.774Z,66.42
2017-12-03T16:06:55.650Z,66.11
2017-12-03T16:09:24.316Z,66.05
2017-12-03T16:11:51.957Z,65.22
2017-12-03T16:14:19.619Z,65.37
2017-12-03T16:16:47.693Z,64.81
2017-12-03T16:19:15.310Z,64.99
2017-12-03T16:21:43.218Z,65.42
2017-12-03T16:24:12.010Z,65.18
2017-12-03T16:26:39.648Z,65.11
2017-12-03T16:29:07.242Z,64.75
2017-12-03T16:31:35.055Z,64.65
2017-12-03T16:34:02.862Z,65.13
2017-12-03T16:36:32.010Z,65.46
2017-12-03T16:38:59.656Z,65.22
2017-12-03T16:41:27.359Z,65.04
2017-12-03T16:43:56.062Z,66.02
2017-12-03T16:46:24.650Z,65.82
2017-12-03T16:48:52.255Z,65.71
2017-12-03T16:51:20.718Z,66.36
2017-12-03T16:56:15.815Z,65.75
2017-12-03T16:58:43.700Z,66.47
2017-12-03T17:01:12.962Z,66.32
2017-12-03T17:03:40.949Z,65.15
2017-12-03T17:06:08.915Z,66.33
2017-12-03T17:08:37.494Z,65.52
2017-12-03T17:11:05.212Z,67.00
2017-12-03T17:13:33.851Z,65.96
2017-12-03T17:16:02.884Z,65.47
2017-12-03T17:18:30.909Z,65.26
2017-12-03T17:20:58.883Z,65.27
2017-12-03T17:23:26.944Z,65.99
2017-12-03T17:25:54.744Z,66.26
2017-12-03T17:28:22.474Z,65.84
2017-12-03T17:30:50.129Z,66.37
2017-12-03T17:33:18.520Z,66.49
2017-12-03T17:35:46.991Z,67.13
2017-12-03T17:38:15.006Z,66.96
2017-12-03T17:40:42.578Z,65.95
2017-12-03T17:43:10.402Z,67.28
2017-12-03T17:45:38.458Z,66.91
2017-12-03T17:48:06.222Z,67.53
2017-12-03T17:50:33.835Z,66.84
2017-12-03T17:53:01.749Z,68.32
2017-12-03T17:55:29.309Z,66.73
2017-12-03T17:57:57.146Z,67.21
2017-12-03T18:00:25.455Z,68.55
2017-12-03T18:02:53.043Z,67.64
2017-12-03T18:05:20.977Z,67.39
2017-12-03T18:07:49.084Z,66.93
2017-12-03T18:10:16.710Z,67.38
2017-12-03T18:12:44.402Z,68.04
2017-12-03T18:15:13.264Z,67.45
2017-12-03T18:17:41.536Z,66.36
2017-12-03T18:20:09.322Z,67.20
2017-12-03T18:22:37.372Z,67.41
2017-12-03T18:25:05.317Z,66.92
2017-12-03T18:27:33.112Z,66.95
2017-12-03T18:30:01.239Z,66.88
2017-12-03T18:32:29.137Z,66.57
2017-12-03T18:34:57.012Z,66.84
2017-12-03T18:37:24.881Z,67.28
2017-12-03T18:39:52.964Z,67.77
2017-12-03T18:42:20.664Z,68.02
2017-12-03T18:44:49.158Z,67.40
2017-12-03T18:47:17.056Z,67.84
2017-12-03T18:49:44.726Z,66.97
2017-12-03T18:52:12.711Z,66.18
2017-12-03T18:54:41.490Z,65.47
2017-12-03T18:57:09.243Z,66.25
2017-12-03T18:59:37.517Z,65.23
2017-12-03T19:02:05.414Z,65.40
2017-12-03T19:04:33.386Z,65.91
2017-12-03T19:07:02.918Z,66.12
2017-12-03T19:09:30.518Z,65.48
2017-12-03T19:11:58.404Z,64.15
2017-12-03T19:14:26.662Z,64.54
2017-12-03T19:16:55.098Z,64.81
2017-12-03T19:19:22.806Z,64.04
2017-12-03T19:21:50.804Z,63.91
2017-12-03T19:24:18.662Z,64.92
2017-12-03T19:26:46.405Z,65.47
2017-12-03T19:29:14.265Z,65.31
2017-12-03T19:31:41.937Z,65.16
2017-12-03T19:34:09.764Z,66.21
2017-12-03T19:36:37.409Z,66.84
2017-12-03T19:39:05.198Z,66.89
2017-12-03T19:41:33.092Z,67.21
2017-12-03T19:44:01.265Z,66.76
2017-12-03T19:46:28.822Z,66.72
2017-12-03T19:48:56.690Z,66.37
2017-12-03T19:51:24.862Z,65.69
2017-12-03T19:53:52.631Z,66.87
2017-12-03T19:56:21.504Z,66.67
2017-12-03T19:58:49.498Z,66.75
2017-12-03T20:01:17.385Z,67.32
2017-12-03T20:03:45.041Z,67.62
2017-12-03T20:06:13.101Z,66.19
2017-12-03T20:08:41.071Z,67.64
2017-12-03T20:11:08.817Z,66.92
2017-12-03T20:13:36.684Z,67.80
2017-12-03T20:16:04.550Z,66.61
2017-12-03T20:18:32.423Z,65.62
2017-12-03T20:21:00.385Z,67.24
2017-12-03T20:23:28.149Z,66.57
2017-12-03T20:25:56.025Z,66.42
2017-12-03T20:28:26.851Z,66.15
2017-12-03T20:30:54.821Z,67.29
2017-12-03T20:33:23.250Z,66.87
2017-12-03T20:35:53.077Z,67.37
2017-12-03T20:38:21.535Z,68.60
2017-12-03T20:40:50.353Z,68.26
2017-12-03T20:43:18.456Z,69.19
2017-12-03T20:45:46.729Z,68.80
2017-12-03T20:48:14.513Z,70.01
2017-12-03T20:50:42.564Z,69.62
2017-12-03T20:53:10.342Z,69.19
2017-12-03T20:55:38.195Z,68.49
2017-12-03T20:58:06.840Z,69.18
2017-12-03T21:00:35.370Z,68.67
2017-12-03T21:03:03.255Z,68.01
2017-12-03T21:05:31.110Z,67.61
2017-12-03T21:07:59.073Z,67.75
2017-12-03T21:10:27.133Z,68.12
2017-12-03T21:12:55.390Z,67.26
2017-12-03T21:15:23.802Z,67.22
2017-12-03T21:17:51.676Z,66.76
2017-12-03T21:20:19.527Z,67.90
2017-12-03T21:22:47.306Z,67.54
2017-12-03T21:25:15.287Z,67.95
2017-12-03T21:27:44.049Z,68.01
2017-12-03T21:30:12.280Z,67.05
2017-12-03T21:32:40.103Z,66.72
2017-12-03T21:35:08.470Z,66.69
2017-12-03T21:37:36.530Z,66.71
2017-12-03T21:40:04.318Z,66.43
2017-12-03T21:42:32.468Z,66.49
2017-12-03T21:45:00.133Z,66.33
2017-12-03T21:47:28.303Z,66.04
2017-12-03T21:49:56.386Z,66.16
2017-12-03T21:52:24.140Z,67.37
2017-12-03T21:54:51.943Z,67.50
2017-12-03T21:57:19.972Z,67.32
2017-12-03T21:59:47.837Z,67.54
2017-12-03T22:02:15.504Z,66.47
2017-12-03T22:04:43.469Z,66.39
2017-12-03T22:07:11.335Z,67.03
2017-12-03T22:09:39.110Z,65.82
2017-12-03T22:12:06.965Z,66.50
2017-12-03T22:14:35.856Z,66.52
2017-12-03T22:17:03.637Z,67.18
2017-12-03T22:19:31.384Z,66.93
2017-12-03T22:21:59.052Z,66.46
2017-12-03T22:24:27.742Z,66.57
2017-12-03T22:26:56.433Z,67.48
2017-12-03T22:29:24.897Z,67.08
2017-12-03T22:31:53.523Z,67.54
2017-12-03T22:34:22.307Z,66.87
2017-12-03T22:36:49.934Z,66.00
2017-12-03T22:39:17.711Z,65.45
2017-12-03T22:41:45.736Z,65.77
2017-12-03T22:44:13.267Z,65.65
2017-12-03T22:46:40.780Z,65.06
2017-12-03T22:49:08.386Z,64.83
2017-12-03T22:51:35.898Z,64.63
2017-12-03T22:54:03.421Z,64.54
2017-12-03T22:56:31.227Z,64.72
2017-12-03T22:58:58.802Z,65.98
2017-12-03T23:01:26.317Z,65.90
2017-12-03T23:03:54.103Z,66.67
2017-12-03T23:06:21.714Z,66.51
2017-12-03T23:08:49.231Z,65.54
2017-12-03T23:11:17.089Z,65.50
2017-12-03T23:13:44.599Z,66.20
2017-12-03T23:16:12.138Z,66.65
2017-12-03T23:18:40.073Z,66.15
2017-12-03T23:21:07.583Z,65.76
2017-12-03T23:23:35.095Z,65.07
2017-12-03T23:26:02.955Z,64.78
2017-12-03T23:28:30.515Z,64.49
2017-12-03T23:30:58.176Z,64.81
2017-12-03T23:33:26.227Z,63.97
2017-12-03T23:35:53.743Z,64.21
2017-12-03T23:38:21.259Z,64.27
2017-12-03T23:40:48.834Z,64.28
2017-12-03T23:43:16.398Z,64.21
2017-12-03T23:45:43.940Z,63.81
2017-12-03T23:48:11.750Z,64.24
2017-12-03T23:50:39.263Z,64.06
2017-12-03T23:53:06.777Z,63.89
2017-12-03T23:55:34.381Z,64.26
2017-12-03T23:58:01.941Z,64.00
